sensor_id;sensor_type;location;lat;lon;timestamp;P1;durP1;ratioP1;P2;durP2;ratioP2
68523;SDS011;55524;51.380;13.372;2023-01-10T00:00:22;1.85;;;1.52;;
68523;SDS011;55524;51.380;13.372;2023-01-10T00:02:50;1.77;;;1.60;;
68523;SDS011;55524;51.380;13.372;2023-01-10T00:05:17;1.88;;;1.35;;
68523;SDS011;55524;51.380;13.372;2023-01-10T00:07:44;1.98;;;1.40;;
68523;SDS011;55524;51.380;13.372;2023-01-10T00:10:10;3.63;;;1.80;;
68523;SDS011;55524;51.380;13.372;2023-01-10T00:12:38;1.58;;;1.48;;
68523;SDS011;55524;51.380;13.372;2023-01-10T00:15:22;1.80;;;1.30;;
68523;SDS011;55524;51.380;13.372;2023-01-10T00:17:49;4.18;;;1.60;;
68523;SDS011;55524;51.380;13.372;2023-01-10T00:20:15;2.38;;;1.75;;
68523;SDS011;55524;51.380;13.372;2023-01-10T00:22:41;2.63;;;1.60;;
68523;SDS011;55524;51.380;13.372;2023-01-10T00:25:09;1.83;;;1.40;;
68523;SDS011;55524;51.380;13.372;2023-01-10T00:27:35;1.63;;;1.52;;
68523;SDS011;55524;51.380;13.372;2023-01-10T00:30:02;3.45;;;1.65;;
68523;SDS011;55524;51.380;13.372;2023-01-10T00:32:39;2.60;;;1.83;;
68523;SDS011;55524;51.380;13.372;2023-01-10T00:35:08;2.05;;;1.83;;
68523;SDS011;55524;51.380;13.372;2023-01-10T00:37:36;3.72;;;1.92;;
68523;SDS011;55524;51.380;13.372;2023-01-10T00:40:04;3.72;;;1.58;;
68523;SDS011;55524;51.380;13.372;2023-01-10T00:42:34;3.42;;;1.75;;
68523;SDS011;55524;51.380;13.372;2023-01-10T00:45:20;2.92;;;1.50;;
68523;SDS011;55524;51.380;13.372;2023-01-10T00:47:49;6.85;;;1.80;;
68523;SDS011;55524;51.380;13.372;2023-01-10T00:50:16;2.38;;;1.48;;
68523;SDS011;55524;51.380;13.372;2023-01-10T00:52:42;1.90;;;1.65;;
68523;SDS011;55524;51.380;13.372;2023-01-10T00:55:09;2.13;;;1.90;;
68523;SDS011;55524;51.380;13.372;2023-01-10T00:57:35;2.80;;;1.70;;
68523;SDS011;55524;51.380;13.372;2023-01-10T01:00:02;6.78;;;1.83;;
68523;SDS011;55524;51.380;13.372;2023-01-10T01:02:31;3.40;;;1.73;;
68523;SDS011;55524;51.380;13.372;2023-01-10T01:04:57;5.32;;;1.90;;
68523;SDS011;55524;51.380;13.372;2023-01-10T01:07:24;2.90;;;1.75;;
68523;SDS011;55524;51.380;13.372;2023-01-10T01:09:50;5.53;;;2.13;;
68523;SDS011;55524;51.380;13.372;2023-01-10T01:12:35;3.55;;;1.83;;
68523;SDS011;55524;51.380;13.372;2023-01-10T01:15:01;7.55;;;1.77;;
68523;SDS011;55524;51.380;13.372;2023-01-10T01:17:27;2.15;;;1.95;;
68523;SDS011;55524;51.380;13.372;2023-01-10T01:19:54;3.63;;;2.22;;
68523;SDS011;55524;51.380;13.372;2023-01-10T01:22:20;1.80;;;1.70;;
68523;SDS011;55524;51.380;13.372;2023-01-10T01:24:46;4.03;;;1.90;;
68523;SDS011;55524;51.380;13.372;2023-01-10T01:27:12;2.90;;;1.88;;
68523;SDS011;55524;51.380;13.372;2023-01-10T01:29:38;3.20;;;2.00;;
68523;SDS011;55524;51.380;13.372;2023-01-10T01:32:05;4.35;;;1.98;;
68523;SDS011;55524;51.380;13.372;2023-01-10T01:34:31;3.50;;;2.08;;
68523;SDS011;55524;51.380;13.372;2023-01-10T01:36:57;5.28;;;1.73;;
68523;SDS011;55524;51.380;13.372;2023-01-10T01:39:23;4.82;;;1.90;;
68523;SDS011;55524;51.380;13.372;2023-01-10T01:41:50;4.65;;;2.03;;
68523;SDS011;55524;51.380;13.372;2023-01-10T01:44:22;2.38;;;2.00;;
68523;SDS011;55524;51.380;13.372;2023-01-10T01:47:14;2.90;;;2.25;;
68523;SDS011;55524;51.380;13.372;2023-01-10T01:49:49;3.10;;;2.00;;
68523;SDS011;55524;51.380;13.372;2023-01-10T01:52:23;4.22;;;2.47;;
68523;SDS011;55524;51.380;13.372;2023-01-10T01:54:54;4.78;;;2.50;;
68523;SDS011;55524;51.380;13.372;2023-01-10T01:57:24;4.55;;;2.53;;
68523;SDS011;55524;51.380;13.372;2023-01-10T01:59:53;4.37;;;2.50;;
68523;SDS011;55524;51.380;13.372;2023-01-10T02:02:22;4.70;;;2.53;;
68523;SDS011;55524;51.380;13.372;2023-01-10T02:04:59;3.50;;;2.42;;
68523;SDS011;55524;51.380;13.372;2023-01-10T02:07:34;2.88;;;2.63;;
68523;SDS011;55524;51.380;13.372;2023-01-10T02:12:52;2.83;;;2.53;;
68523;SDS011;55524;51.380;13.372;2023-01-10T02:15:23;4.68;;;2.78;;
68523;SDS011;55524;51.380;13.372;2023-01-10T02:17:49;2.97;;;2.38;;
68523;SDS011;55524;51.380;13.372;2023-01-10T02:20:17;3.83;;;2.65;;
68523;SDS011;55524;51.380;13.372;2023-01-10T02:22:57;5.43;;;2.90;;
68523;SDS011;55524;51.380;13.372;2023-01-10T02:42:14;2.85;;;2.55;;
68523;SDS011;55524;51.380;13.372;2023-01-10T02:45:15;5.45;;;3.17;;
68523;SDS011;55524;51.380;13.372;2023-01-10T02:47:55;3.60;;;2.50;;
68523;SDS011;55524;51.380;13.372;2023-01-10T02:52:55;3.40;;;3.00;;
68523;SDS011;55524;51.380;13.372;2023-01-10T02:55:27;5.15;;;2.95;;
68523;SDS011;55524;51.380;13.372;2023-01-10T03:00:50;6.20;;;2.60;;
68523;SDS011;55524;51.380;13.372;2023-01-10T03:06:39;3.80;;;2.45;;
68523;SDS011;55524;51.380;13.372;2023-01-10T03:09:26;4.10;;;2.50;;
68523;SDS011;55524;51.380;13.372;2023-01-10T03:12:09;5.30;;;2.80;;
68523;SDS011;55524;51.380;13.372;2023-01-10T03:14:44;4.03;;;2.58;;
68523;SDS011;55524;51.380;13.372;2023-01-10T03:17:13;4.40;;;2.90;;
68523;SDS011;55524;51.380;13.372;2023-01-10T03:19:45;4.55;;;2.83;;
68523;SDS011;55524;51.380;13.372;2023-01-10T03:22:18;2.75;;;2.47;;
68523;SDS011;55524;51.380;13.372;2023-01-10T03:24:48;4.78;;;2.80;;
68523;SDS011;55524;51.380;13.372;2023-01-10T03:27:28;4.38;;;3.00;;
68523;SDS011;55524;51.380;13.372;2023-01-10T03:30:46;8.07;;;2.78;;
68523;SDS011;55524;51.380;13.372;2023-01-10T03:32:54;3.83;;;2.50;;
68523;SDS011;55524;51.380;13.372;2023-01-10T03:35:27;4.38;;;3.00;;
68523;SDS011;55524;51.380;13.372;2023-01-10T03:38:35;6.03;;;2.80;;
68523;SDS011;55524;51.380;13.372;2023-01-10T03:44:20;7.53;;;2.80;;
68523;SDS011;55524;51.380;13.372;2023-01-10T03:49:42;3.80;;;2.90;;
68523;SDS011;55524;51.380;13.372;2023-01-10T03:52:12;7.90;;;3.08;;
68523;SDS011;55524;51.380;13.372;2023-01-10T03:54:41;5.25;;;2.92;;
68523;SDS011;55524;51.380;13.372;2023-01-10T03:57:08;4.60;;;3.05;;
68523;SDS011;55524;51.380;13.372;2023-01-10T03:59:43;6.55;;;3.10;;
68523;SDS011;55524;51.380;13.372;2023-01-10T04:02:10;5.80;;;3.22;;
68523;SDS011;55524;51.380;13.372;2023-01-10T04:04:36;5.00;;;3.05;;
68523;SDS011;55524;51.380;13.372;2023-01-10T04:07:03;8.98;;;3.13;;
68523;SDS011;55524;51.380;13.372;2023-01-10T04:09:29;4.72;;;3.35;;
68523;SDS011;55524;51.380;13.372;2023-01-10T04:11:55;4.85;;;3.15;;
68523;SDS011;55524;51.380;13.372;2023-01-10T04:14:21;6.55;;;3.03;;
68523;SDS011;55524;51.380;13.372;2023-01-10T04:16:47;4.30;;;3.10;;
68523;SDS011;55524;51.380;13.372;2023-01-10T04:19:14;5.82;;;3.25;;
68523;SDS011;55524;51.380;13.372;2023-01-10T04:21:40;5.63;;;3.22;;
68523;SDS011;55524;51.380;13.372;2023-01-10T04:24:06;6.85;;;3.47;;
68523;SDS011;55524;51.380;13.372;2023-01-10T04:26:33;4.28;;;2.92;;
68523;SDS011;55524;51.380;13.372;2023-01-10T04:28:59;5.43;;;3.22;;
68523;SDS011;55524;51.380;13.372;2023-01-10T04:31:25;7.95;;;3.33;;
68523;SDS011;55524;51.380;13.372;2023-01-10T04:33:51;6.93;;;3.30;;
68523;SDS011;55524;51.380;13.372;2023-01-10T04:36:18;6.88;;;3.42;;
68523;SDS011;55524;51.380;13.372;2023-01-10T04:38:44;11.38;;;3.88;;
68523;SDS011;55524;51.380;13.372;2023-01-10T04:41:10;7.80;;;3.20;;
68523;SDS011;55524;51.380;13.372;2023-01-10T04:43:36;4.97;;;3.42;;
68523;SDS011;55524;51.380;13.372;2023-01-10T04:46:03;6.07;;;3.30;;
68523;SDS011;55524;51.380;13.372;2023-01-10T04:48:29;5.35;;;3.30;;
68523;SDS011;55524;51.380;13.372;2023-01-10T04:50:55;9.40;;;3.80;;
68523;SDS011;55524;51.380;13.372;2023-01-10T04:53:22;6.63;;;3.35;;
68523;SDS011;55524;51.380;13.372;2023-01-10T04:55:48;5.00;;;3.38;;
68523;SDS011;55524;51.380;13.372;2023-01-10T04:58:14;4.40;;;3.47;;
68523;SDS011;55524;51.380;13.372;2023-01-10T05:00:40;5.90;;;3.40;;
68523;SDS011;55524;51.380;13.372;2023-01-10T05:03:07;9.25;;;3.90;;
68523;SDS011;55524;51.380;13.372;2023-01-10T05:05:33;6.25;;;3.53;;
68523;SDS011;55524;51.380;13.372;2023-01-10T05:08:00;8.23;;;3.78;;
68523;SDS011;55524;51.380;13.372;2023-01-10T05:10:26;6.43;;;3.80;;
68523;SDS011;55524;51.380;13.372;2023-01-10T05:12:52;4.70;;;3.47;;
68523;SDS011;55524;51.380;13.372;2023-01-10T05:15:19;9.57;;;3.72;;
68523;SDS011;55524;51.380;13.372;2023-01-10T05:17:47;6.93;;;3.78;;
68523;SDS011;55524;51.380;13.372;2023-01-10T05:20:15;8.45;;;3.92;;
68523;SDS011;55524;51.380;13.372;2023-01-10T05:22:41;8.73;;;3.63;;
68523;SDS011;55524;51.380;13.372;2023-01-10T05:25:08;6.57;;;3.65;;
68523;SDS011;55524;51.380;13.372;2023-01-10T05:27:34;7.88;;;3.72;;
68523;SDS011;55524;51.380;13.372;2023-01-10T05:30:00;9.75;;;3.97;;
68523;SDS011;55524;51.380;13.372;2023-01-10T05:32:27;5.28;;;3.67;;
68523;SDS011;55524;51.380;13.372;2023-01-10T05:34:53;6.88;;;3.97;;
68523;SDS011;55524;51.380;13.372;2023-01-10T05:37:20;7.18;;;4.18;;
68523;SDS011;55524;51.380;13.372;2023-01-10T05:39:46;13.85;;;4.18;;
68523;SDS011;55524;51.380;13.372;2023-01-10T05:42:12;6.05;;;3.53;;
68523;SDS011;55524;51.380;13.372;2023-01-10T05:44:38;7.65;;;4.00;;
68523;SDS011;55524;51.380;13.372;2023-01-10T05:47:05;13.82;;;4.30;;
68523;SDS011;55524;51.380;13.372;2023-01-10T05:49:31;10.75;;;3.45;;
68523;SDS011;55524;51.380;13.372;2023-01-10T05:51:57;10.57;;;3.50;;
68523;SDS011;55524;51.380;13.372;2023-01-10T05:54:23;7.03;;;3.63;;
68523;SDS011;55524;51.380;13.372;2023-01-10T05:56:50;6.60;;;3.60;;
68523;SDS011;55524;51.380;13.372;2023-01-10T05:59:16;8.63;;;3.78;;
68523;SDS011;55524;51.380;13.372;2023-01-10T06:01:42;5.88;;;3.58;;
68523;SDS011;55524;51.380;13.372;2023-01-10T06:04:08;7.18;;;3.47;;
68523;SDS011;55524;51.380;13.372;2023-01-10T06:06:35;8.68;;;3.80;;
68523;SDS011;55524;51.380;13.372;2023-01-10T06:09:01;9.38;;;3.90;;
68523;SDS011;55524;51.380;13.372;2023-01-10T06:11:27;5.55;;;3.67;;
68523;SDS011;55524;51.380;13.372;2023-01-10T06:13:57;8.05;;;4.03;;
68523;SDS011;55524;51.380;13.372;2023-01-10T06:16:23;9.23;;;4.10;;
68523;SDS011;55524;51.380;13.372;2023-01-10T06:18:50;8.18;;;4.40;;
68523;SDS011;55524;51.380;13.372;2023-01-10T06:21:16;7.55;;;4.00;;
68523;SDS011;55524;51.380;13.372;2023-01-10T06:23:42;8.32;;;3.90;;
68523;SDS011;55524;51.380;13.372;2023-01-10T06:26:09;6.00;;;3.78;;
68523;SDS011;55524;51.380;13.372;2023-01-10T06:28:35;10.13;;;3.83;;
68523;SDS011;55524;51.380;13.372;2023-01-10T06:31:01;9.45;;;4.45;;
68523;SDS011;55524;51.380;13.372;2023-01-10T06:33:28;7.50;;;3.92;;
68523;SDS011;55524;51.380;13.372;2023-01-10T06:35:54;9.88;;;3.80;;
68523;SDS011;55524;51.380;13.372;2023-01-10T06:38:20;11.05;;;4.20;;
68523;SDS011;55524;51.380;13.372;2023-01-10T06:40:56;8.85;;;4.43;;
68523;SDS011;55524;51.380;13.372;2023-01-10T06:43:22;8.30;;;4.18;;
68523;SDS011;55524;51.380;13.372;2023-01-10T06:45:49;8.27;;;4.15;;
68523;SDS011;55524;51.380;13.372;2023-01-10T06:48:15;8.32;;;4.28;;
68523;SDS011;55524;51.380;13.372;2023-01-10T06:50:41;7.28;;;4.13;;
68523;SDS011;55524;51.380;13.372;2023-01-10T06:53:08;8.57;;;4.00;;
68523;SDS011;55524;51.380;13.372;2023-01-10T06:55:34;6.60;;;3.92;;
68523;SDS011;55524;51.380;13.372;2023-01-10T06:58:01;6.30;;;4.00;;
68523;SDS011;55524;51.380;13.372;2023-01-10T07:00:28;8.00;;;4.60;;
68523;SDS011;55524;51.380;13.372;2023-01-10T07:02:58;7.43;;;4.63;;
68523;SDS011;55524;51.380;13.372;2023-01-10T07:05:26;6.85;;;3.92;;
68523;SDS011;55524;51.380;13.372;2023-01-10T07:07:53;7.22;;;4.20;;
68523;SDS011;55524;51.380;13.372;2023-01-10T07:10:20;10.63;;;4.10;;
68523;SDS011;55524;51.380;13.372;2023-01-10T07:12:46;8.68;;;3.75;;
68523;SDS011;55524;51.380;13.372;2023-01-10T07:15:13;8.85;;;4.68;;
68523;SDS011;55524;51.380;13.372;2023-01-10T07:17:39;7.00;;;4.25;;
68523;SDS011;55524;51.380;13.372;2023-01-10T07:20:05;6.15;;;4.07;;
68523;SDS011;55524;51.380;13.372;2023-01-10T07:22:32;8.98;;;3.95;;
68523;SDS011;55524;51.380;13.372;2023-01-10T07:24:58;11.50;;;4.35;;
68523;SDS011;55524;51.380;13.372;2023-01-10T07:27:25;8.05;;;4.57;;
68523;SDS011;55524;51.380;13.372;2023-01-10T07:29:51;9.95;;;4.63;;
68523;SDS011;55524;51.380;13.372;2023-01-10T07:32:17;8.85;;;4.45;;
68523;SDS011;55524;51.380;13.372;2023-01-10T07:34:43;9.90;;;4.90;;
68523;SDS011;55524;51.380;13.372;2023-01-10T07:37:10;10.50;;;4.78;;
68523;SDS011;55524;51.380;13.372;2023-01-10T07:39:36;10.10;;;4.53;;
68523;SDS011;55524;51.380;13.372;2023-01-10T07:42:02;9.55;;;4.43;;
68523;SDS011;55524;51.380;13.372;2023-01-10T07:44:28;5.35;;;4.28;;
68523;SDS011;55524;51.380;13.372;2023-01-10T07:46:56;6.75;;;4.70;;
68523;SDS011;55524;51.380;13.372;2023-01-10T07:49:22;9.98;;;4.82;;
68523;SDS011;55524;51.380;13.372;2023-01-10T07:51:48;9.43;;;4.35;;
68523;SDS011;55524;51.380;13.372;2023-01-10T07:54:15;6.28;;;4.32;;
68523;SDS011;55524;51.380;13.372;2023-01-10T07:56:41;10.02;;;4.80;;
68523;SDS011;55524;51.380;13.372;2023-01-10T07:59:07;9.88;;;4.75;;
68523;SDS011;55524;51.380;13.372;2023-01-10T08:01:34;6.80;;;3.90;;
68523;SDS011;55524;51.380;13.372;2023-01-10T08:04:00;9.05;;;4.50;;
68523;SDS011;55524;51.380;13.372;2023-01-10T08:06:26;7.57;;;3.88;;
68523;SDS011;55524;51.380;13.372;2023-01-10T08:08:52;11.55;;;4.32;;
68523;SDS011;55524;51.380;13.372;2023-01-10T08:11:19;6.35;;;4.10;;
68523;SDS011;55524;51.380;13.372;2023-01-10T08:13:45;6.88;;;4.10;;
68523;SDS011;55524;51.380;13.372;2023-01-10T08:16:11;6.25;;;4.13;;
68523;SDS011;55524;51.380;13.372;2023-01-10T08:18:39;6.53;;;4.22;;
68523;SDS011;55524;51.380;13.372;2023-01-10T08:21:08;9.88;;;4.07;;
68523;SDS011;55524;51.380;13.372;2023-01-10T08:23:35;5.65;;;3.72;;
68523;SDS011;55524;51.380;13.372;2023-01-10T08:26:01;9.93;;;3.70;;
68523;SDS011;55524;51.380;13.372;2023-01-10T08:28:28;5.72;;;3.97;;
68523;SDS011;55524;51.380;13.372;2023-01-10T08:30:54;7.20;;;3.90;;
68523;SDS011;55524;51.380;13.372;2023-01-10T08:33:21;8.55;;;4.22;;
68523;SDS011;55524;51.380;13.372;2023-01-10T08:35:48;6.50;;;4.03;;
68523;SDS011;55524;51.380;13.372;2023-01-10T08:38:15;8.10;;;4.13;;
68523;SDS011;55524;51.380;13.372;2023-01-10T08:40:41;10.90;;;4.40;;
68523;SDS011;55524;51.380;13.372;2023-01-10T08:43:11;8.23;;;3.58;;
68523;SDS011;55524;51.380;13.372;2023-01-10T08:45:39;5.88;;;3.85;;
68523;SDS011;55524;51.380;13.372;2023-01-10T08:48:05;7.10;;;3.40;;
68523;SDS011;55524;51.380;13.372;2023-01-10T08:50:33;5.97;;;2.83;;
68523;SDS011;55524;51.380;13.372;2023-01-10T08:53:00;6.13;;;2.60;;
68523;SDS011;55524;51.380;13.372;2023-01-10T08:55:27;2.30;;;2.10;;
68523;SDS011;55524;51.380;13.372;2023-01-10T08:57:55;3.75;;;2.55;;
68523;SDS011;55524;51.380;13.372;2023-01-10T09:00:23;5.38;;;2.17;;
68523;SDS011;55524;51.380;13.372;2023-01-10T09:02:49;5.88;;;2.00;;
68523;SDS011;55524;51.380;13.372;2023-01-10T09:05:15;5.93;;;2.17;;
68523;SDS011;55524;51.380;13.372;2023-01-10T09:07:42;5.72;;;2.25;;
68523;SDS011;55524;51.380;13.372;2023-01-10T09:10:08;3.28;;;2.00;;
68523;SDS011;55524;51.380;13.372;2023-01-10T09:12:35;4.63;;;2.15;;
68523;SDS011;55524;51.380;13.372;2023-01-10T09:15:23;2.08;;;1.88;;
68523;SDS011;55524;51.380;13.372;2023-01-10T09:17:58;2.58;;;2.05;;
68523;SDS011;55524;51.380;13.372;2023-01-10T09:20:28;6.55;;;2.20;;
68523;SDS011;55524;51.380;13.372;2023-01-10T09:22:56;4.75;;;2.35;;
68523;SDS011;55524;51.380;13.372;2023-01-10T09:25:24;5.55;;;2.78;;
68523;SDS011;55524;51.380;13.372;2023-01-10T09:27:55;3.22;;;2.72;;
68523;SDS011;55524;51.380;13.372;2023-01-10T09:30:22;5.93;;;2.67;;
68523;SDS011;55524;51.380;13.372;2023-01-10T09:32:49;2.67;;;2.47;;
68523;SDS011;55524;51.380;13.372;2023-01-10T09:35:16;5.68;;;2.72;;
68523;SDS011;55524;51.380;13.372;2023-01-10T09:37:43;5.85;;;3.28;;
68523;SDS011;55524;51.380;13.372;2023-01-10T09:40:12;7.22;;;3.05;;
68523;SDS011;55524;51.380;13.372;2023-01-10T09:53:54;4.35;;;2.55;;
68523;SDS011;55524;51.380;13.372;2023-01-10T09:56:24;8.40;;;3.35;;
68523;SDS011;55524;51.380;13.372;2023-01-10T09:58:52;7.35;;;2.85;;
68523;SDS011;55524;51.380;13.372;2023-01-10T10:01:20;5.60;;;2.97;;
68523;SDS011;55524;51.380;13.372;2023-01-10T10:04:36;4.30;;;2.95;;
68523;SDS011;55524;51.380;13.372;2023-01-10T10:06:49;5.07;;;2.72;;
68523;SDS011;55524;51.380;13.372;2023-01-10T10:09:27;9.63;;;3.17;;
68523;SDS011;55524;51.380;13.372;2023-01-10T10:34:09;4.25;;;1.70;;
68523;SDS011;55524;51.380;13.372;2023-01-10T10:36:38;5.82;;;1.70;;
68523;SDS011;55524;51.380;13.372;2023-01-10T10:39:12;3.22;;;1.80;;
68523;SDS011;55524;51.380;13.372;2023-01-10T10:41:45;3.83;;;1.90;;
68523;SDS011;55524;51.380;13.372;2023-01-10T10:47:01;6.30;;;2.10;;
68523;SDS011;55524;51.380;13.372;2023-01-10T10:49:40;4.50;;;2.20;;
68523;SDS011;55524;51.380;13.372;2023-01-10T10:52:19;8.10;;;2.35;;
68523;SDS011;55524;51.380;13.372;2023-01-10T10:54:49;5.88;;;2.95;;
68523;SDS011;55524;51.380;13.372;2023-01-10T10:57:16;6.82;;;2.58;;
68523;SDS011;55524;51.380;13.372;2023-01-10T10:59:46;8.80;;;2.60;;
68523;SDS011;55524;51.380;13.372;2023-01-10T11:02:34;6.13;;;2.40;;
68523;SDS011;55524;51.380;13.372;2023-01-10T11:05:06;6.60;;;2.80;;
68523;SDS011;55524;51.380;13.372;2023-01-10T11:07:38;7.15;;;2.42;;
68523;SDS011;55524;51.380;13.372;2023-01-10T11:10:39;5.95;;;2.50;;
68523;SDS011;55524;51.380;13.372;2023-01-10T11:13:02;7.10;;;2.63;;
68523;SDS011;55524;51.380;13.372;2023-01-10T11:15:39;6.82;;;2.80;;
68523;SDS011;55524;51.380;13.372;2023-01-10T11:18:12;9.02;;;2.70;;
68523;SDS011;55524;51.380;13.372;2023-01-10T11:20:47;6.47;;;2.20;;
68523;SDS011;55524;51.380;13.372;2023-01-10T11:23:23;5.82;;;2.30;;
68523;SDS011;55524;51.380;13.372;2023-01-10T11:25:50;7.13;;;2.50;;
68523;SDS011;55524;51.380;13.372;2023-01-10T11:28:17;8.95;;;2.67;;
68523;SDS011;55524;51.380;13.372;2023-01-10T11:30:49;4.13;;;2.70;;
68523;SDS011;55524;51.380;13.372;2023-01-10T11:33:20;5.78;;;2.90;;
68523;SDS011;55524;51.380;13.372;2023-01-10T11:35:55;4.30;;;2.35;;
68523;SDS011;55524;51.380;13.372;2023-01-10T11:38:24;6.28;;;2.40;;
68523;SDS011;55524;51.380;13.372;2023-01-10T11:43:41;8.85;;;2.30;;
68523;SDS011;55524;51.380;13.372;2023-01-10T11:49:29;8.18;;;1.98;;
68523;SDS011;55524;51.380;13.372;2023-01-10T11:52:06;9.20;;;2.03;;
68523;SDS011;55524;51.380;13.372;2023-01-10T11:54:44;8.02;;;2.53;;
68523;SDS011;55524;51.380;13.372;2023-01-10T11:57:15;10.93;;;2.28;;
68523;SDS011;55524;51.380;13.372;2023-01-10T11:59:55;7.30;;;2.38;;
68523;SDS011;55524;51.380;13.372;2023-01-10T12:04:57;6.32;;;2.30;;
68523;SDS011;55524;51.380;13.372;2023-01-10T12:07:27;4.90;;;2.30;;
68523;SDS011;55524;51.380;13.372;2023-01-10T12:10:00;9.15;;;2.13;;
68523;SDS011;55524;51.380;13.372;2023-01-10T12:12:32;10.63;;;2.45;;
68523;SDS011;55524;51.380;13.372;2023-01-10T12:17:56;6.22;;;2.10;;
68523;SDS011;55524;51.380;13.372;2023-01-10T12:20:27;9.93;;;2.10;;
68523;SDS011;55524;51.380;13.372;2023-01-10T12:22:59;6.10;;;1.80;;
68523;SDS011;55524;51.380;13.372;2023-01-10T12:28:38;5.55;;;2.00;;
68523;SDS011;55524;51.380;13.372;2023-01-10T12:30:58;4.88;;;1.60;;
68523;SDS011;55524;51.380;13.372;2023-01-10T12:33:33;5.30;;;1.90;;
68523;SDS011;55524;51.380;13.372;2023-01-10T12:39:27;4.00;;;1.73;;
68523;SDS011;55524;51.380;13.372;2023-01-10T12:45:04;7.50;;;1.75;;
68523;SDS011;55524;51.380;13.372;2023-01-10T12:50:46;5.88;;;1.77;;
68523;SDS011;55524;51.380;13.372;2023-01-10T12:55:53;7.97;;;1.63;;
68523;SDS011;55524;51.380;13.372;2023-01-10T13:00:59;9.43;;;1.75;;
68523;SDS011;55524;51.380;13.372;2023-01-10T13:03:28;5.85;;;1.63;;
68523;SDS011;55524;51.380;13.372;2023-01-10T13:05:57;7.15;;;1.70;;
68523;SDS011;55524;51.380;13.372;2023-01-10T13:08:26;6.82;;;1.38;;
68523;SDS011;55524;51.380;13.372;2023-01-10T13:10:56;3.88;;;1.50;;
68523;SDS011;55524;51.380;13.372;2023-01-10T13:13:44;7.93;;;1.67;;
68523;SDS011;55524;51.380;13.372;2023-01-10T13:16:21;4.80;;;1.45;;
68523;SDS011;55524;51.380;13.372;2023-01-10T13:19:04;8.13;;;1.50;;
68523;SDS011;55524;51.380;13.372;2023-01-10T13:21:35;7.05;;;1.42;;
68523;SDS011;55524;51.380;13.372;2023-01-10T13:24:03;4.45;;;1.40;;
68523;SDS011;55524;51.380;13.372;2023-01-10T13:26:53;3.78;;;1.25;;
68523;SDS011;55524;51.380;13.372;2023-01-10T13:31:51;3.72;;;1.23;;
68523;SDS011;55524;51.380;13.372;2023-01-10T13:34:22;8.43;;;1.95;;
68523;SDS011;55524;51.380;13.372;2023-01-10T13:37:13;5.03;;;1.15;;
68523;SDS011;55524;51.380;13.372;2023-01-10T13:39:49;4.45;;;1.30;;
68523;SDS011;55524;51.380;13.372;2023-01-10T13:42:31;4.68;;;1.20;;
68523;SDS011;55524;51.380;13.372;2023-01-10T13:45:24;6.70;;;1.40;;
68523;SDS011;55524;51.380;13.372;2023-01-10T14:01:20;4.53;;;1.20;;
68523;SDS011;55524;51.380;13.372;2023-01-10T14:04:18;3.72;;;1.38;;
68523;SDS011;55524;51.380;13.372;2023-01-10T14:06:55;5.32;;;1.45;;
68523;SDS011;55524;51.380;13.372;2023-01-10T14:12:01;4.38;;;1.50;;
68523;SDS011;55524;51.380;13.372;2023-01-10T14:14:39;4.22;;;1.45;;
68523;SDS011;55524;51.380;13.372;2023-01-10T14:17:14;5.45;;;1.58;;
68523;SDS011;55524;51.380;13.372;2023-01-10T14:19:44;5.07;;;1.50;;
68523;SDS011;55524;51.380;13.372;2023-01-10T14:22:26;5.82;;;1.60;;
68523;SDS011;55524;51.380;13.372;2023-01-10T14:24:58;2.45;;;1.10;;
68523;SDS011;55524;51.380;13.372;2023-01-10T14:27:30;4.80;;;1.50;;
68523;SDS011;55524;51.380;13.372;2023-01-10T14:30:13;3.38;;;1.33;;
68523;SDS011;55524;51.380;13.372;2023-01-10T14:32:44;7.18;;;1.45;;
68523;SDS011;55524;51.380;13.372;2023-01-10T14:35:16;6.65;;;1.58;;
68523;SDS011;55524;51.380;13.372;2023-01-10T14:37:50;6.35;;;1.67;;
68523;SDS011;55524;51.380;13.372;2023-01-10T14:40:24;6.47;;;1.70;;
68523;SDS011;55524;51.380;13.372;2023-01-10T14:42:59;9.40;;;1.70;;
68523;SDS011;55524;51.380;13.372;2023-01-10T14:48:32;149.95;;;12.20;;
68523;SDS011;55524;51.380;13.372;2023-01-10T14:51:14;3.63;;;1.42;;
68523;SDS011;55524;51.380;13.372;2023-01-10T14:53:59;2.95;;;1.70;;
68523;SDS011;55524;51.380;13.372;2023-01-10T14:56:29;5.78;;;1.58;;
68523;SDS011;55524;51.380;13.372;2023-01-10T15:01:52;6.60;;;1.75;;
68523;SDS011;55524;51.380;13.372;2023-01-10T15:04:22;5.72;;;1.60;;
68523;SDS011;55524;51.380;13.372;2023-01-10T15:06:55;5.22;;;1.58;;
68523;SDS011;55524;51.380;13.372;2023-01-10T15:09:24;2.55;;;1.70;;
68523;SDS011;55524;51.380;13.372;2023-01-10T15:11:50;5.20;;;1.73;;
68523;SDS011;55524;51.380;13.372;2023-01-10T15:14:19;5.38;;;1.65;;
68523;SDS011;55524;51.380;13.372;2023-01-10T15:16:49;2.67;;;1.40;;
68523;SDS011;55524;51.380;13.372;2023-01-10T15:19:25;5.13;;;1.60;;
68523;SDS011;55524;51.380;13.372;2023-01-10T15:22:01;6.90;;;2.28;;
68523;SDS011;55524;51.380;13.372;2023-01-10T15:24:35;2.75;;;1.55;;
68523;SDS011;55524;51.380;13.372;2023-01-10T15:27:02;5.90;;;1.92;;
68523;SDS011;55524;51.380;13.372;2023-01-10T15:29:32;4.53;;;1.80;;
68523;SDS011;55524;51.380;13.372;2023-01-10T15:32:07;5.68;;;1.75;;
68523;SDS011;55524;51.380;13.372;2023-01-10T15:34:53;9.07;;;2.00;;
68523;SDS011;55524;51.380;13.372;2023-01-10T15:37:22;6.78;;;1.67;;
68523;SDS011;55524;51.380;13.372;2023-01-10T15:39:54;18.25;;;1.60;;
68523;SDS011;55524;51.380;13.372;2023-01-10T15:42:21;6.93;;;1.80;;
68523;SDS011;55524;51.380;13.372;2023-01-10T15:44:48;7.78;;;1.90;;
68523;SDS011;55524;51.380;13.372;2023-01-10T15:47:39;6.18;;;1.75;;
68523;SDS011;55524;51.380;13.372;2023-01-10T15:52:53;7.55;;;1.50;;
68523;SDS011;55524;51.380;13.372;2023-01-10T16:00:59;7.32;;;1.50;;
68523;SDS011;55524;51.380;13.372;2023-01-10T16:03:36;4.32;;;1.83;;
68523;SDS011;55524;51.380;13.372;2023-01-10T16:06:13;6.28;;;1.80;;
68523;SDS011;55524;51.380;13.372;2023-01-10T16:09:03;7.78;;;1.73;;
68523;SDS011;55524;51.380;13.372;2023-01-10T16:11:37;5.32;;;1.90;;
68523;SDS011;55524;51.380;13.372;2023-01-10T16:14:28;4.40;;;1.90;;
68523;SDS011;55524;51.380;13.372;2023-01-10T16:16:55;4.25;;;1.73;;
68523;SDS011;55524;51.380;13.372;2023-01-10T16:19:21;6.65;;;1.80;;
68523;SDS011;55524;51.380;13.372;2023-01-10T16:21:51;5.30;;;1.90;;
68523;SDS011;55524;51.380;13.372;2023-01-10T16:24:24;7.07;;;1.80;;
68523;SDS011;55524;51.380;13.372;2023-01-10T16:26:52;10.93;;;2.15;;
68523;SDS011;55524;51.380;13.372;2023-01-10T16:29:21;6.75;;;2.08;;
68523;SDS011;55524;51.380;13.372;2023-01-10T16:31:48;6.15;;;1.80;;
68523;SDS011;55524;51.380;13.372;2023-01-10T16:34:16;10.52;;;2.28;;
68523;SDS011;55524;51.380;13.372;2023-01-10T16:36:42;4.00;;;1.60;;
68523;SDS011;55524;51.380;13.372;2023-01-10T16:39:16;3.60;;;1.80;;
68523;SDS011;55524;51.380;13.372;2023-01-10T16:41:44;7.53;;;1.85;;
68523;SDS011;55524;51.380;13.372;2023-01-10T16:44:29;3.30;;;1.60;;
68523;SDS011;55524;51.380;13.372;2023-01-10T16:46:57;6.25;;;1.70;;
68523;SDS011;55524;51.380;13.372;2023-01-10T16:49:28;4.57;;;1.73;;
68523;SDS011;55524;51.380;13.372;2023-01-10T16:51:55;6.72;;;2.05;;
68523;SDS011;55524;51.380;13.372;2023-01-10T16:54:22;6.50;;;1.92;;
68523;SDS011;55524;51.380;13.372;2023-01-10T16:56:52;4.80;;;2.13;;
68523;SDS011;55524;51.380;13.372;2023-01-10T16:59:18;7.25;;;2.30;;
68523;SDS011;55524;51.380;13.372;2023-01-10T17:01:48;3.58;;;2.00;;
68523;SDS011;55524;51.380;13.372;2023-01-10T17:04:21;3.92;;;1.83;;